createdAt,value
2023-04-17T00:01:11.947Z,99764.94
2023-04-17T00:03:39.924Z,99760.41
2023-04-17T00:06:07.868Z,99758.95
2023-04-17T00:08:35.689Z,99757.61
2023-04-17T00:11:07.589Z,99759.54
2023-04-17T00:13:37.068Z,99761.61
2023-04-17T00:16:04.963Z,99760.48
2023-04-17T00:18:32.769Z,99759.20
2023-04-17T00:21:00.752Z,99756.73
2023-04-17T00:23:28.563Z,99755.65
2023-04-17T00:25:56.395Z,99760.64
2023-04-17T00:28:24.482Z,99762.19
2023-04-17T00:30:52.367Z,99761.20
2023-04-17T00:33:20.649Z,99758.50
2023-04-17T00:35:49.072Z,99758.36
2023-04-17T00:38:17.360Z,99758.77
2023-04-17T00:40:46.183Z,99760.77
2023-04-17T00:43:13.949Z,99760.26
2023-04-17T00:45:41.958Z,99760.89
2023-04-17T00:48:11.151Z,99763.02
2023-04-17T00:50:39.424Z,99767.20
2023-04-17T00:53:07.987Z,99767.27
2023-04-17T00:55:38.062Z,99765.88
2023-04-17T00:58:06.331Z,99767.71
2023-04-17T01:00:34.567Z,99771.45
2023-04-17T01:03:02.879Z,99776.64
2023-04-17T01:05:30.835Z,99777.43
2023-04-17T01:07:59.754Z,99779.70
2023-04-17T01:10:27.804Z,99776.84
2023-04-17T01:13:05.122Z,99773.38
2023-04-17T01:15:33.710Z,99773.02
2023-04-17T01:18:01.853Z,99774.56
2023-04-17T01:20:31.444Z,99772.41
2023-04-17T01:22:59.859Z,99773.94
2023-04-17T01:25:28.036Z,99777.20
2023-04-17T01:27:56.495Z,99777.27
2023-04-17T01:30:24.646Z,99774.41
2023-04-17T01:32:58.332Z,99772.23
2023-04-17T01:35:26.382Z,99772.95
2023-04-17T01:37:55.652Z,99773.45
2023-04-17T01:40:23.420Z,99772.05
2023-04-17T01:42:52.277Z,99773.41
2023-04-17T01:45:21.179Z,99770.85
2023-04-17T01:47:49.514Z,99771.04
2023-04-17T01:50:17.461Z,99767.17
2023-04-17T01:52:45.594Z,99767.92
2023-04-17T01:55:13.999Z,99771.09
2023-04-17T01:57:42.350Z,99772.63
2023-04-17T02:00:10.892Z,99774.15
2023-04-17T02:02:43.958Z,99778.59
2023-04-17T02:05:11.994Z,99780.11
2023-04-17T02:07:39.698Z,99780.67
2023-04-17T02:10:08.274Z,99779.88
2023-04-17T02:12:37.710Z,99783.67
2023-04-17T02:15:06.055Z,99784.49
2023-04-17T02:17:34.198Z,99783.94
2023-04-17T02:20:01.948Z,99782.23
2023-04-17T02:22:32.765Z,99783.60
2023-04-17T02:25:00.535Z,99784.36
2023-04-17T02:27:30.155Z,99785.27
2023-04-17T02:29:57.824Z,99785.56
2023-04-17T02:32:26.678Z,99781.74
2023-04-17T02:34:54.858Z,99781.36
2023-04-17T02:37:22.872Z,99782.23
2023-04-17T02:39:51.319Z,99779.08
2023-04-17T02:42:19.183Z,99778.90
2023-04-17T02:44:47.889Z,99783.46
2023-04-17T02:47:16.006Z,99782.98
2023-04-17T02:49:44.068Z,99784.44
2023-04-17T02:52:11.895Z,99784.49
2023-04-17T02:54:40.118Z,99784.92
2023-04-17T02:57:08.873Z,99783.20
2023-04-17T02:59:36.888Z,99782.61
2023-04-17T03:02:05.325Z,99785.09
2023-04-17T03:04:34.600Z,99782.64
2023-04-17T03:07:02.373Z,99783.15
2023-04-17T03:09:30.984Z,99783.98
2023-04-17T03:11:58.986Z,99781.16
2023-04-17T03:14:26.692Z,99782.48
2023-04-17T03:16:54.549Z,99783.54
2023-04-17T03:19:22.712Z,99785.09
2023-04-17T03:21:51.548Z,99786.13
2023-04-17T03:24:19.635Z,99786.61
2023-04-17T03:26:47.508Z,99789.13
2023-04-17T03:29:17.400Z,99789.88
2023-04-17T03:31:45.358Z,99792.19
2023-04-17T03:34:13.196Z,99795.96
2023-04-17T03:36:41.491Z,99798.70
2023-04-17T03:39:09.809Z,99800.27
2023-04-17T03:41:38.651Z,99799.62
2023-04-17T03:44:07.234Z,99804.20
2023-04-17T03:46:35.211Z,99803.86
2023-04-17T03:49:03.400Z,99806.91
2023-04-17T03:51:31.977Z,99807.55
2023-04-17T03:54:06.521Z,99807.21
2023-04-17T03:56:34.480Z,99807.30
2023-04-17T03:59:03.518Z,99809.60
2023-04-17T04:01:34.550Z,99811.33
2023-04-17T04:04:28.853Z,99817.52
2023-04-17T04:07:05.503Z,99819.63
2023-04-17T04:09:34.632Z,99819.25
2023-04-17T04:12:03.839Z,99819.91
2023-04-17T04:14:33.511Z,99821.21
2023-04-17T04:17:01.616Z,99821.03
2023-04-17T04:19:29.446Z,99823.60
2023-04-17T04:21:58.732Z,99825.27
2023-04-17T04:24:34.104Z,99826.13
2023-04-17T04:27:06.766Z,99826.20
2023-04-17T04:29:37.817Z,99826.10
2023-04-17T04:32:09.783Z,99830.80
2023-04-17T04:34:42.133Z,99833.63
2023-04-17T04:37:10.301Z,99834.55
2023-04-17T04:39:43.134Z,99836.85
2023-04-17T04:42:22.403Z,99838.83
2023-04-17T04:45:13.589Z,99839.11
2023-04-17T04:47:42.443Z,99838.36
2023-04-17T04:50:10.527Z,99841.75
2023-04-17T04:52:38.659Z,99840.31
2023-04-17T04:55:12.671Z,99844.58
2023-04-17T04:57:45.713Z,99849.05
2023-04-17T05:00:14.046Z,99854.65
2023-04-17T05:02:46.740Z,99858.27
2023-04-17T05:05:15.439Z,99858.23
2023-04-17T05:07:43.487Z,99855.80
2023-04-17T05:10:13.154Z,99854.92
2023-04-17T05:12:45.168Z,99851.69
2023-04-17T05:15:14.511Z,99851.16
2023-04-17T05:17:42.370Z,99854.14
2023-04-17T05:20:12.462Z,99854.44
2023-04-17T05:22:47.334Z,99853.98
2023-04-17T05:25:16.748Z,99857.03
2023-04-17T05:27:46.278Z,99856.09
2023-04-17T05:30:14.390Z,99857.08
2023-04-17T05:32:43.051Z,99855.50
2023-04-17T05:35:34.124Z,99858.44
2023-04-17T05:38:01.874Z,99863.27
2023-04-17T05:40:29.762Z,99863.02
2023-04-17T05:42:57.701Z,99863.27
2023-04-17T05:45:25.892Z,99864.61
2023-04-17T05:47:54.107Z,99867.09
2023-04-17T05:50:22.384Z,99870.10
2023-04-17T05:52:50.767Z,99872.05
2023-04-17T05:55:20.570Z,99871.14
2023-04-17T05:57:50.962Z,99874.21
2023-04-17T06:00:19.258Z,99873.70
2023-04-17T06:02:49.934Z,99874.25
2023-04-17T06:05:25.026Z,99872.86
2023-04-17T06:07:54.369Z,99873.53
2023-04-17T06:10:22.660Z,99875.58
2023-04-17T06:12:51.578Z,99874.66
2023-04-17T06:15:19.688Z,99876.02
2023-04-17T06:17:47.517Z,99878.90
2023-04-17T06:20:15.833Z,99875.94
2023-04-17T06:22:47.476Z,99868.87
2023-04-17T06:25:18.149Z,99873.42
2023-04-17T06:27:46.573Z,99873.92
2023-04-17T06:30:14.545Z,99874.08
2023-04-17T06:32:51.253Z,99872.20
2023-04-17T06:35:20.103Z,99872.71
2023-04-17T06:37:51.125Z,99878.82
2023-04-17T06:40:19.435Z,99881.92
2023-04-17T06:42:47.334Z,99885.33
2023-04-17T06:45:20.068Z,99881.02
2023-04-17T06:47:48.183Z,99881.32
2023-04-17T06:50:18.650Z,99878.34
2023-04-17T06:52:46.728Z,99876.30
2023-04-17T06:55:14.879Z,99875.41
2023-04-17T06:57:42.916Z,99870.27
2023-04-17T07:00:10.972Z,99867.59
2023-04-17T07:02:38.887Z,99868.02
2023-04-17T07:05:07.390Z,99867.65
2023-04-17T07:07:36.158Z,99868.63
2023-04-17T07:10:04.489Z,99869.63
2023-04-17T07:12:32.973Z,99868.63
2023-04-17T07:15:00.921Z,99870.63
2023-04-17T07:17:28.809Z,99872.35
2023-04-17T07:19:56.726Z,99871.84
2023-04-17T07:22:25.991Z,99867.86
2023-04-17T07:24:55.348Z,99868.27
2023-04-17T07:27:23.334Z,99870.62
2023-04-17T07:29:54.817Z,99871.05
2023-04-17T07:32:24.948Z,99869.02
2023-04-17T07:34:53.086Z,99868.91
2023-04-17T07:37:21.479Z,99866.89
2023-04-17T07:39:50.281Z,99869.26
2023-04-17T07:42:18.199Z,99869.02
2023-04-17T07:44:46.449Z,99867.86
2023-04-17T07:47:14.563Z,99864.55
2023-04-17T07:49:46.544Z,99865.02
2023-04-17T07:52:15.392Z,99864.45
2023-04-17T07:54:43.830Z,99867.34
2023-04-17T07:57:11.842Z,99866.48
2023-04-17T07:59:39.673Z,99864.65
2023-04-17T08:02:07.894Z,99868.58
2023-04-17T08:04:36.358Z,99870.08
2023-04-17T08:07:04.267Z,99868.83
2023-04-17T08:09:32.424Z,99869.30
2023-04-17T08:12:00.215Z,99872.80
2023-04-17T08:14:28.032Z,99878.38
2023-04-17T08:16:55.945Z,99881.30
2023-04-17T08:19:23.896Z,99878.67
2023-04-17T08:21:52.078Z,99877.31
2023-04-17T08:24:20.201Z,99877.91
2023-04-17T08:26:48.246Z,99878.92
2023-04-17T08:29:16.646Z,99879.44
2023-04-17T08:31:44.576Z,99878.89
2023-04-17T08:34:15.104Z,99881.25
2023-04-17T08:36:43.441Z,99878.98
2023-04-17T08:39:12.606Z,99879.65
2023-04-17T08:41:45.214Z,99883.08
2023-04-17T08:44:14.207Z,99883.23
2023-04-17T08:46:42.223Z,99880.23
2023-04-17T08:49:10.902Z,99877.63
2023-04-17T08:51:38.883Z,99877.17
2023-04-17T08:54:06.680Z,99878.30
2023-04-17T08:56:34.602Z,99875.75
2023-04-17T08:59:02.805Z,99874.08
2023-04-17T09:01:30.866Z,99869.83
2023-04-17T09:03:59.452Z,99873.34
2023-04-17T09:06:27.815Z,99875.52
2023-04-17T09:09:00.763Z,99875.48
2023-04-17T09:11:28.718Z,99871.45
2023-04-17T09:13:56.752Z,99872.05
2023-04-17T09:16:25.855Z,99868.01
2023-04-17T09:19:04.852Z,99869.61
2023-04-17T09:21:32.785Z,99869.98
2023-04-17T09:24:00.581Z,99869.88
2023-04-17T09:26:31.457Z,99865.36
2023-04-17T09:29:03.744Z,99865.91
2023-04-17T09:31:35.012Z,99867.92
2023-04-17T09:34:07.389Z,99862.77
2023-04-17T09:36:39.869Z,99856.71
2023-04-17T09:39:21.130Z,99859.10
2023-04-17T09:41:49.408Z,99856.83
2023-04-17T09:44:27.998Z,99860.72
2023-04-17T09:46:56.522Z,99859.50
2023-04-17T09:49:24.473Z,99859.66
2023-04-17T09:51:52.885Z,99850.67
2023-04-17T09:54:23.221Z,99849.56
2023-04-17T09:56:56.344Z,99845.45
2023-04-17T09:59:24.998Z,99844.84
2023-04-17T10:01:55.700Z,99842.81
2023-04-17T10:04:23.774Z,99844.52
2023-04-17T10:06:52.043Z,99846.59
2023-04-17T10:09:19.907Z,99845.25
2023-04-17T10:11:48.255Z,99842.95
2023-04-17T10:14:16.088Z,99845.13
2023-04-17T10:16:44.126Z,99845.35
2023-04-17T10:19:25.182Z,99844.64
2023-04-17T10:22:11.917Z,99845.20
2023-04-17T10:24:40.305Z,99841.92
2023-04-17T10:27:27.161Z,99838.66
2023-04-17T10:29:56.453Z,99837.66
2023-04-17T10:32:26.291Z,99839.19
2023-04-17T10:35:14.397Z,99840.72
2023-04-17T10:37:51.467Z,99833.27
2023-04-17T10:40:22.824Z,99830.30
2023-04-17T10:43:04.740Z,99828.15
2023-04-17T10:45:50.913Z,99824.16
2023-04-17T10:48:36.557Z,99818.35
2023-04-17T10:51:23.622Z,99813.55
2023-04-17T10:53:55.594Z,99808.85
2023-04-17T10:56:27.662Z,99811.75
2023-04-17T10:58:59.530Z,99811.64
2023-04-17T11:01:32.182Z,99810.20
2023-04-17T11:04:00.729Z,99806.95
2023-04-17T11:06:31.459Z,99806.30
2023-04-17T11:09:00.059Z,99808.02
2023-04-17T11:11:42.917Z,99810.25
2023-04-17T11:14:21.665Z,99803.58
2023-04-17T11:16:50.893Z,99800.89
2023-04-17T11:19:23.367Z,99801.55
2023-04-17T11:21:52.351Z,99805.80
2023-04-17T11:24:24.125Z,99794.20
2023-04-17T11:26:52.442Z,99794.80
2023-04-17T11:29:21.897Z,99792.77
2023-04-17T11:31:52.000Z,99790.48
2023-04-17T11:34:20.697Z,99794.60
2023-04-17T11:36:49.258Z,99792.69
2023-04-17T11:39:17.647Z,99787.95
2023-04-17T11:41:46.492Z,99785.44
2023-04-17T11:44:14.896Z,99784.52
2023-04-17T11:46:42.734Z,99783.58
2023-04-17T11:49:11.895Z,99784.15
2023-04-17T11:51:40.012Z,99784.87
2023-04-17T11:54:08.551Z,99784.24
2023-04-17T11:56:36.389Z,99779.30
2023-04-17T11:59:05.320Z,99781.65
2023-04-17T12:01:33.394Z,99782.14
2023-04-17T12:04:01.646Z,99781.86
2023-04-17T12:06:37.311Z,99781.27
2023-04-17T12:09:07.317Z,99776.33
2023-04-17T12:11:35.949Z,99773.52
2023-04-17T12:14:11.683Z,99770.20
2023-04-17T12:16:39.732Z,99766.55
2023-04-17T12:19:13.385Z,99772.67
2023-04-17T12:21:41.036Z,99769.73
2023-04-17T12:24:09.364Z,99769.75
2023-04-17T12:26:44.556Z,99771.89
2023-04-17T12:29:12.314Z,99767.86
2023-04-17T12:31:40.338Z,99761.86
2023-04-17T12:34:08.482Z,99763.30
2023-04-17T12:36:36.323Z,99760.86
2023-04-17T12:39:04.760Z,99762.89
2023-04-17T12:41:32.513Z,99765.59
2023-04-17T12:44:03.366Z,99769.88
2023-04-17T12:46:31.321Z,99768.14
2023-04-17T12:48:59.429Z,99772.24
2023-04-17T12:51:31.168Z,99777.11
2023-04-17T12:53:59.086Z,99790.77
2023-04-17T12:56:27.549Z,99799.77
2023-04-17T12:58:55.822Z,99805.40
2023-04-17T13:01:23.595Z,99804.97
2023-04-17T13:03:51.681Z,99805.55
2023-04-17T13:06:21.579Z,99809.41
2023-04-17T13:08:49.351Z,99807.11
2023-04-17T13:11:17.187Z,99811.11
2023-04-17T13:13:45.143Z,99812.86
2023-04-17T13:16:13.319Z,99812.05
2023-04-17T13:18:41.119Z,99810.81
2023-04-17T13:21:09.407Z,99810.45
2023-04-17T13:23:37.448Z,99808.23
2023-04-17T13:26:05.403Z,99813.61
2023-04-17T13:28:33.315Z,99817.48
2023-04-17T13:31:01.472Z,99814.80
2023-04-17T13:33:29.353Z,99816.85
2023-04-17T13:35:57.347Z,99818.75
2023-04-17T13:38:25.903Z,99820.64
2023-04-17T13:40:53.752Z,99824.92
2023-04-17T13:43:21.432Z,99826.98
2023-04-17T13:45:49.833Z,99827.73
2023-04-17T13:48:17.939Z,99827.49
2023-04-17T13:50:45.936Z,99827.07
2023-04-17T13:53:14.158Z,99829.73
2023-04-17T13:55:42.237Z,99830.14
2023-04-17T13:58:10.123Z,99831.80
2023-04-17T14:00:38.003Z,99834.62
2023-04-17T14:03:05.951Z,99834.56
2023-04-17T14:05:34.882Z,99831.91
2023-04-17T14:08:03.248Z,99830.62
2023-04-17T14:10:31.058Z,99830.38
2023-04-17T14:12:59.179Z,99833.80
2023-04-17T14:15:27.260Z,99829.41
2023-04-17T14:17:55.200Z,99827.66
2023-04-17T14:20:23.028Z,99825.05
2023-04-17T14:22:51.140Z,99822.45
2023-04-17T14:25:18.931Z,99821.52
2023-04-17T14:27:46.728Z,99814.61
2023-04-17T14:30:14.671Z,99813.14
2023-04-17T14:32:42.782Z,99814.44
2023-04-17T14:35:10.555Z,99811.68
2023-04-17T14:37:38.905Z,99809.72
2023-04-17T14:40:07.621Z,99809.32
2023-04-17T14:42:43.869Z,99804.08
2023-04-17T14:45:21.398Z,99803.60
2023-04-17T14:47:49.480Z,99799.58
2023-04-17T14:50:17.430Z,99791.33
2023-04-17T14:52:45.387Z,99788.74
2023-04-17T14:55:13.633Z,99790.35
2023-04-17T14:57:41.428Z,99792.40
2023-04-17T15:00:09.669Z,99788.86
2023-04-17T15:02:39.271Z,99787.02
2023-04-17T15:05:08.417Z,99786.42
2023-04-17T15:07:36.430Z,99783.34
2023-04-17T15:10:04.512Z,99783.83
2023-04-17T15:12:32.735Z,99784.77
2023-04-17T15:15:00.526Z,99785.02
2023-04-17T15:17:28.378Z,99781.42
2023-04-17T15:19:57.493Z,99779.23
2023-04-17T15:22:25.677Z,99777.52
2023-04-17T15:24:53.698Z,99779.15
2023-04-17T15:27:21.894Z,99783.17
2023-04-17T15:29:49.869Z,99786.89
2023-04-17T15:32:17.760Z,99794.75
2023-04-17T15:34:45.618Z,99795.13
2023-04-17T15:37:13.714Z,99793.48
2023-04-17T15:39:41.767Z,99797.30
2023-04-17T15:42:09.973Z,99797.27
2023-04-17T15:44:37.932Z,99797.13
2023-04-17T15:47:06.724Z,99797.41
2023-04-17T15:49:35.004Z,99797.58
2023-04-17T15:52:02.851Z,99802.16
2023-04-17T15:54:31.308Z,99805.56
2023-04-17T15:56:59.445Z,99801.52
2023-04-17T15:59:27.366Z,99794.92
2023-04-17T16:01:55.289Z,99795.05
2023-04-17T16:04:23.264Z,99798.41
2023-04-17T16:06:51.536Z,99801.34
2023-04-17T16:09:24.072Z,99798.67
2023-04-17T16:11:51.838Z,99800.98
2023-04-17T16:14:20.702Z,99809.65
2023-04-17T16:16:48.471Z,99816.82
2023-04-17T16:19:16.299Z,99828.00
2023-04-17T16:21:45.048Z,99838.49
2023-04-17T16:24:12.949Z,99840.39
2023-04-17T16:26:42.785Z,99842.52
2023-04-17T16:29:10.953Z,99847.13
2023-04-17T16:31:38.777Z,99850.19
2023-04-17T16:34:06.544Z,99842.37
2023-04-17T16:36:34.760Z,99844.69
2023-04-17T16:39:03.569Z,99852.02
2023-04-17T16:41:31.497Z,99854.15
2023-04-17T16:43:59.327Z,99855.34
2023-04-17T16:46:35.470Z,99856.86
2023-04-17T16:49:13.605Z,99861.77
2023-04-17T16:51:41.855Z,99866.73
2023-04-17T16:54:09.619Z,99868.43
2023-04-17T16:56:37.813Z,99874.98
2023-04-17T16:59:06.007Z,99884.23
2023-04-17T17:01:34.097Z,99884.38
2023-04-17T17:04:02.045Z,99881.63
2023-04-17T17:06:30.129Z,99876.17
2023-04-17T17:08:59.574Z,99883.53
2023-04-17T17:11:27.785Z,99881.10
2023-04-17T17:13:56.234Z,99879.23
2023-04-17T17:16:23.996Z,99875.34
2023-04-17T17:18:52.012Z,99871.38
2023-04-17T17:21:19.860Z,99873.66
2023-04-17T17:23:49.185Z,99880.88
2023-04-17T17:26:18.028Z,99889.77
2023-04-17T17:28:51.160Z,99896.52
2023-04-17T17:31:20.041Z,99902.48
2023-04-17T17:33:53.964Z,99907.31
2023-04-17T17:36:22.241Z,99906.80
2023-04-17T17:38:56.097Z,99898.34
2023-04-17T17:41:24.475Z,99895.13
2023-04-17T17:43:52.386Z,99907.69
2023-04-17T17:46:22.478Z,99912.77
2023-04-17T17:48:50.541Z,99917.80
2023-04-17T17:51:18.649Z,99928.74
2023-04-17T17:53:47.427Z,99924.69
2023-04-17T17:56:15.441Z,99925.10
2023-04-17T17:58:43.585Z,99925.39
2023-04-17T18:01:13.552Z,99926.48
2023-04-17T18:03:41.581Z,99926.66
2023-04-17T18:06:09.855Z,99922.04
2023-04-17T18:08:38.363Z,99917.52
2023-04-17T18:11:06.354Z,99914.41
2023-04-17T18:13:34.226Z,99907.39
2023-04-17T18:16:05.664Z,99910.50
2023-04-17T18:18:33.990Z,99913.29
2023-04-17T18:21:05.839Z,99909.34
2023-04-17T18:23:34.124Z,99911.14
2023-04-17T18:26:03.137Z,99914.27
2023-04-17T18:28:31.051Z,99913.23
2023-04-17T18:30:58.944Z,99915.23
2023-04-17T18:33:29.478Z,99913.90
2023-04-17T18:35:57.397Z,99918.41
2023-04-17T18:38:25.499Z,99924.23
2023-04-17T18:40:54.096Z,99924.38
2023-04-17T18:43:21.987Z,99924.37
2023-04-17T18:45:49.724Z,99923.11
2023-04-17T18:48:17.853Z,99923.67
2023-04-17T18:50:47.817Z,99924.89
2023-04-17T18:53:15.654Z,99928.98
2023-04-17T18:55:43.481Z,99928.52
2023-04-17T18:58:13.935Z,99926.50
2023-04-17T19:00:41.686Z,99923.24
2023-04-17T19:03:10.346Z,99920.58
2023-04-17T19:05:38.444Z,99923.67
2023-04-17T19:08:06.292Z,99927.05
2023-04-17T19:10:34.223Z,99934.90
2023-04-17T19:13:02.074Z,99934.98
2023-04-17T19:15:29.887Z,99935.34
2023-04-17T19:17:58.423Z,99933.86
2023-04-17T19:20:26.260Z,99933.90
2023-04-17T19:22:55.632Z,99935.63
2023-04-17T19:25:23.353Z,99937.02
2023-04-17T19:27:51.261Z,99937.55
2023-04-17T19:30:19.274Z,99939.17
2023-04-17T19:32:47.097Z,99941.65
2023-04-17T19:35:15.775Z,99943.84
2023-04-17T19:37:43.560Z,99945.61
2023-04-17T19:40:23.775Z,99945.45
2023-04-17T19:42:53.541Z,99945.45
2023-04-17T19:45:21.285Z,99941.89
2023-04-17T19:47:55.178Z,99934.70
2023-04-17T19:50:23.718Z,99934.88
2023-04-17T19:52:51.440Z,99938.15
2023-04-17T19:55:19.785Z,99936.54
2023-04-17T19:57:49.466Z,99933.83
2023-04-17T20:00:18.062Z,99930.10
2023-04-17T20:02:47.032Z,99927.01
2023-04-17T20:05:15.132Z,99923.63
2023-04-17T20:07:42.960Z,99918.92
2023-04-17T20:10:11.520Z,99916.84
2023-04-17T20:12:39.327Z,99916.52
2023-04-17T20:15:07.461Z,99913.21
2023-04-17T20:17:35.383Z,99912.48
2023-04-17T20:20:03.398Z,99912.30
2023-04-17T20:22:31.216Z,99913.73
2023-04-17T20:24:58.961Z,99911.85
2023-04-17T20:27:26.658Z,99914.14
2023-04-17T20:29:54.490Z,99915.40
2023-04-17T20:32:23.168Z,99914.96
2023-04-17T20:34:50.964Z,99919.73
2023-04-17T20:37:18.959Z,99920.33
2023-04-17T20:39:46.908Z,99922.63
2023-04-17T20:42:14.684Z,99917.23
2023-04-17T20:44:42.701Z,99916.23
2023-04-17T20:47:10.453Z,99918.44
2023-04-17T20:49:38.291Z,99915.07
2023-04-17T20:52:06.349Z,99916.14
2023-04-17T20:54:34.205Z,99917.25
2023-04-17T20:57:02.294Z,99918.39
2023-04-17T20:59:30.650Z,99919.88
2023-04-17T21:01:58.499Z,99922.65
2023-04-17T21:04:26.493Z,99922.36
2023-04-17T21:06:55.123Z,99919.75
2023-04-17T21:09:24.113Z,99915.98
2023-04-17T21:11:51.932Z,99916.58
2023-04-17T21:14:19.769Z,99915.66
2023-04-17T21:16:47.721Z,99913.84
2023-04-17T21:19:15.933Z,99912.95
2023-04-17T21:21:43.777Z,99915.44
2023-04-17T21:24:11.798Z,99914.13
2023-04-17T21:26:39.856Z,99916.29
2023-04-17T21:29:07.804Z,99917.98
2023-04-17T21:31:35.710Z,99919.45
2023-04-17T21:34:03.951Z,99918.98
2023-04-17T21:36:32.090Z,99917.73
2023-04-17T21:39:00.086Z,99918.52
2023-04-17T21:41:28.234Z,99919.27
2023-04-17T21:43:56.154Z,99922.98
2023-04-17T21:46:24.040Z,99922.72
2023-04-17T21:48:52.018Z,99921.41
2023-04-17T21:51:20.216Z,99926.77
2023-04-17T21:53:48.307Z,99926.75
2023-04-17T21:56:16.144Z,99927.36
2023-04-17T21:58:43.881Z,99930.67
2023-04-17T22:01:12.233Z,99933.00
2023-04-17T22:03:39.969Z,99933.48
2023-04-17T22:06:07.816Z,99931.46
2023-04-17T22:08:35.708Z,99933.23
2023-04-17T22:11:03.517Z,99935.47
2023-04-17T22:13:31.275Z,99934.39
2023-04-17T22:15:59.255Z,99933.88
2023-04-17T22:18:27.648Z,99933.46
2023-04-17T22:20:55.810Z,99935.60
2023-04-17T22:23:24.078Z,99934.50
2023-04-17T22:25:51.842Z,99932.35
2023-04-17T22:28:20.570Z,99931.98
2023-04-17T22:30:52.301Z,99930.52
2023-04-17T22:33:20.176Z,99929.88
2023-04-17T22:35:48.716Z,99931.38
2023-04-17T22:38:18.167Z,99933.94
2023-04-17T22:40:45.992Z,99936.60
2023-04-17T22:43:14.353Z,99934.93
2023-04-17T22:45:42.648Z,99934.29
2023-04-17T22:48:10.495Z,99931.88
2023-04-17T22:50:38.519Z,99933.02
2023-04-17T22:53:06.860Z,99937.31
2023-04-17T22:55:34.795Z,99935.74
2023-04-17T22:58:02.814Z,99934.39
2023-04-17T23:00:31.813Z,99935.52
2023-04-17T23:02:59.626Z,99932.42
2023-04-17T23:05:27.594Z,99931.27
2023-04-17T23:07:55.412Z,99929.98
2023-04-17T23:10:23.176Z,99929.99
2023-04-17T23:12:51.302Z,99932.27
2023-04-17T23:15:19.229Z,99931.41
2023-04-17T23:17:47.196Z,99931.70
2023-04-17T23:20:14.956Z,99931.02
2023-04-17T23:22:43.054Z,99928.65
2023-04-17T23:25:10.986Z,99929.59
2023-04-17T23:27:38.815Z,99926.59
2023-04-17T23:30:07.003Z,99926.79
2023-04-17T23:32:35.069Z,99927.02
2023-04-17T23:35:03.483Z,99924.52
2023-04-17T23:37:31.348Z,99925.94
2023-04-17T23:40:01.224Z,99928.54
2023-04-17T23:42:29.092Z,99928.41
2023-04-17T23:44:56.997Z,99929.56
2023-04-17T23:47:25.162Z,99929.13
2023-04-17T23:49:52.979Z,99931.56
2023-04-17T23:52:20.727Z,99933.98
2023-04-17T23:54:48.816Z,99936.46
2023-04-17T23:57:17.098Z,99939.61
2023-04-17T23:59:45.231Z,99943.83
